createdAt,value
2023-05-11T00:00:56.697Z,800.6923
2023-05-11T00:01:59.423Z,807.9231
2023-05-11T00:03:00.050Z,806.4615
2023-05-11T00:04:01.661Z,811.1539
2023-05-11T00:05:03.241Z,801.8461
2023-05-11T00:06:04.917Z,804.3077
2023-05-11T00:07:06.559Z,803.4615
2023-05-11T00:08:08.230Z,807.5385
2023-05-11T00:09:09.893Z,810.9231
2023-05-11T00:10:11.438Z,803.1539
2023-05-11T00:11:13.163Z,802.6154
2023-05-11T00:12:15.295Z,806.0769
2023-05-11T00:13:16.412Z,800.0769
2023-05-11T00:14:18.036Z,804.8461
2023-05-11T00:15:19.689Z,795.3077
2023-05-11T00:16:21.432Z,803.0000
2023-05-11T00:17:23.058Z,802.7692
2023-05-11T00:18:24.682Z,805.9231
2023-05-11T00:19:26.249Z,807.6923
2023-05-11T00:20:27.926Z,804.6923
2023-05-11T00:21:29.575Z,815.1539
2023-05-11T00:22:31.296Z,809.5385
2023-05-11T00:23:32.829Z,801.3846
2023-05-11T00:24:34.533Z,808.3077
2023-05-11T00:25:36.134Z,806.0769
2023-05-11T00:26:37.846Z,792.3077
2023-05-11T00:27:39.481Z,803.3846
2023-05-11T00:28:41.160Z,800.6154
2023-05-11T00:29:42.702Z,799.9231
2023-05-11T00:30:44.462Z,795.6154
2023-05-11T00:31:46.055Z,796.4615
2023-05-11T00:32:47.814Z,797.3077
2023-05-11T00:33:49.301Z,797.3846
2023-05-11T00:34:51.073Z,800.6154
2023-05-11T00:35:52.597Z,805.4615
2023-05-11T00:36:54.466Z,797.0000
2023-05-11T00:37:56.032Z,795.1539
2023-05-11T00:38:57.671Z,801.6154
2023-05-11T00:39:59.280Z,799.3077
2023-05-11T00:41:00.943Z,795.3846
2023-05-11T00:42:02.640Z,801.4615
2023-05-11T00:43:04.278Z,802.0769
2023-05-11T00:44:05.928Z,800.0000
2023-05-11T00:45:07.511Z,795.9231
2023-05-11T00:46:09.190Z,786.6154
2023-05-11T00:47:10.907Z,799.4615
2023-05-11T00:48:12.456Z,795.6154
2023-05-11T00:49:14.134Z,798.5385
2023-05-11T00:50:15.923Z,792.9231
2023-05-11T00:51:17.387Z,799.0769
2023-05-11T00:52:19.077Z,794.1539
2023-05-11T00:53:20.757Z,794.2308
2023-05-11T00:54:22.308Z,799.0000
2023-05-11T00:55:23.971Z,797.1539
2023-05-11T00:56:25.668Z,796.3846
2023-05-11T00:57:27.333Z,795.4615
2023-05-11T00:58:28.961Z,792.6923
2023-05-11T00:59:30.623Z,795.0769
2023-05-11T01:00:32.230Z,799.4615
2023-05-11T01:01:33.865Z,802.5385
2023-05-11T01:02:36.370Z,799.9231
2023-05-11T01:03:37.203Z,796.3846
2023-05-11T01:04:38.859Z,801.2308
2023-05-11T01:05:40.469Z,797.0769
2023-05-11T01:06:42.059Z,799.8461
2023-05-11T01:07:43.768Z,803.9231
2023-05-11T01:08:45.833Z,808.8461
2023-05-11T01:09:47.037Z,804.3077
2023-05-11T01:10:48.629Z,802.0769
2023-05-11T01:11:50.327Z,807.0000
2023-05-11T01:12:51.969Z,798.7692
2023-05-11T01:13:53.649Z,802.2308
2023-05-11T01:14:55.693Z,800.7692
2023-05-11T01:15:56.895Z,794.4615
2023-05-11T01:16:58.587Z,793.3846
2023-05-11T01:18:00.257Z,793.8461
2023-05-11T01:19:02.002Z,794.0769
2023-05-11T01:20:03.453Z,797.4615
2023-05-11T01:21:05.087Z,800.3846
2023-05-11T01:22:06.871Z,800.3077
2023-05-11T01:23:08.446Z,795.7692
2023-05-11T01:24:10.054Z,797.6923
2023-05-11T01:25:11.668Z,794.0000
2023-05-11T01:26:13.349Z,800.6923
2023-05-11T01:27:14.964Z,799.6923
2023-05-11T01:28:16.701Z,798.4615
2023-05-11T01:29:18.325Z,799.0000
2023-05-11T01:30:20.127Z,798.4615
2023-05-11T01:31:21.576Z,804.2308
2023-05-11T01:32:23.290Z,798.9231
2023-05-11T01:33:24.839Z,796.6923
2023-05-11T01:34:26.632Z,803.3077
2023-05-11T01:35:28.163Z,795.6154
2023-05-11T01:36:29.830Z,804.6923
2023-05-11T01:37:31.404Z,800.9231
2023-05-11T01:38:33.131Z,799.7692
2023-05-11T01:39:34.736Z,795.6923
2023-05-11T01:40:36.396Z,796.0769
2023-05-11T01:41:37.996Z,794.1539
2023-05-11T01:42:39.731Z,797.2308
2023-05-11T01:43:41.309Z,792.8461
2023-05-11T01:44:43.058Z,795.1539
2023-05-11T01:45:44.667Z,792.4615
2023-05-11T01:46:46.268Z,793.3077
2023-05-11T01:47:47.922Z,795.8461
2023-05-11T01:48:49.579Z,798.0000
2023-05-11T01:49:51.299Z,797.2308
2023-05-11T01:50:52.991Z,800.0769
2023-05-11T01:51:54.462Z,794.4615
2023-05-11T01:52:56.195Z,795.2308
2023-05-11T01:53:57.885Z,793.7692
2023-05-11T01:54:59.486Z,797.6923
2023-05-11T01:56:01.133Z,804.2308
2023-05-11T01:57:02.721Z,797.6154
2023-05-11T01:58:04.334Z,795.0000
2023-05-11T01:59:06.045Z,796.6923
2023-05-11T02:00:07.688Z,798.7692
2023-05-11T02:01:09.347Z,799.9231
2023-05-11T02:02:10.992Z,792.3846
2023-05-11T02:03:12.743Z,798.0000
2023-05-11T02:04:14.268Z,800.7692
2023-05-11T02:05:15.959Z,796.8461
2023-05-11T02:06:17.600Z,793.2308
2023-05-11T02:07:19.228Z,794.5385
2023-05-11T02:08:20.917Z,789.5385
2023-05-11T02:09:22.542Z,797.6923
2023-05-11T02:10:24.163Z,793.3077
2023-05-11T02:11:25.807Z,789.7692
2023-05-11T02:12:27.408Z,795.5385
2023-05-11T02:13:29.105Z,796.1539
2023-05-11T02:14:30.734Z,793.1539
2023-05-11T02:15:32.429Z,796.4615
2023-05-11T02:16:34.059Z,792.6154
2023-05-11T02:17:35.736Z,785.1539
2023-05-11T02:18:37.351Z,789.7692
2023-05-11T02:19:39.901Z,791.0769
2023-05-11T02:20:40.633Z,791.6154
2023-05-11T02:21:42.250Z,790.4615
2023-05-11T02:22:43.921Z,792.6923
2023-05-11T02:23:45.556Z,790.2308
2023-05-11T02:24:47.433Z,795.3846
2023-05-11T02:25:48.934Z,798.3846
2023-05-11T02:26:50.488Z,794.7692
2023-05-11T02:27:52.130Z,791.9231
2023-05-11T02:28:53.795Z,791.6923
2023-05-11T02:29:55.435Z,796.7692
2023-05-11T02:30:57.164Z,790.0000
2023-05-11T02:31:58.691Z,793.3077
2023-05-11T02:33:00.423Z,795.0769
2023-05-11T02:34:01.997Z,791.5385
2023-05-11T02:35:03.799Z,793.5385
2023-05-11T02:36:05.328Z,787.9231
2023-05-11T02:37:06.999Z,788.7692
2023-05-11T02:38:08.583Z,788.7692
2023-05-11T02:39:10.259Z,793.3077
2023-05-11T02:40:11.960Z,788.2308
2023-05-11T02:41:13.603Z,785.9231
2023-05-11T02:42:15.194Z,785.3077
2023-05-11T02:43:16.893Z,786.6154
2023-05-11T02:44:18.446Z,785.5385
2023-05-11T02:45:20.166Z,786.7692
2023-05-11T02:46:21.879Z,785.0769
2023-05-11T02:47:23.460Z,792.9231
2023-05-11T02:48:25.115Z,786.6154
2023-05-11T02:49:26.814Z,788.2308
2023-05-11T02:50:28.424Z,790.4615
2023-05-11T02:51:30.112Z,794.3077
2023-05-11T02:52:31.647Z,791.9231
2023-05-11T02:53:33.468Z,775.0000
2023-05-11T02:54:35.792Z,798.9231
2023-05-11T02:55:36.965Z,820.6154
2023-05-11T02:56:38.386Z,838.3077
2023-05-11T02:57:39.951Z,844.0769
2023-05-11T02:58:41.571Z,852.4615
2023-05-11T02:59:43.219Z,845.1539
2023-05-11T03:00:44.991Z,844.3077
2023-05-11T03:01:46.703Z,833.6923
2023-05-11T03:02:48.216Z,837.0000
2023-05-11T03:03:50.098Z,841.6923
2023-05-11T03:04:51.503Z,846.8461
2023-05-11T03:05:53.090Z,846.0000
2023-05-11T03:06:54.767Z,848.7692
2023-05-11T03:07:56.343Z,850.4615
2023-05-11T03:08:58.005Z,847.8461
2023-05-11T03:09:59.623Z,849.1539
2023-05-11T03:11:01.971Z,846.7692
2023-05-11T03:12:02.946Z,844.6923
2023-05-11T03:13:04.675Z,845.5385
2023-05-11T03:14:06.237Z,844.3077
2023-05-11T03:15:07.898Z,847.2308
2023-05-11T03:16:09.577Z,849.9231
2023-05-11T03:17:11.266Z,852.6154
2023-05-11T03:18:12.767Z,852.6154
2023-05-11T03:19:15.375Z,851.7692
2023-05-11T03:20:16.287Z,849.3077
2023-05-11T03:21:17.839Z,850.4615
2023-05-11T03:22:19.359Z,846.8461
2023-05-11T03:23:21.076Z,849.5385
2023-05-11T03:24:22.660Z,852.9231
2023-05-11T03:25:24.294Z,855.1539
2023-05-11T03:26:26.355Z,854.1539
2023-05-11T03:27:27.745Z,850.1539
2023-05-11T03:28:29.248Z,854.6154
2023-05-11T03:29:30.890Z,853.1539
2023-05-11T03:30:32.496Z,852.4615
2023-05-11T03:31:34.265Z,855.6154
2023-05-11T03:32:35.821Z,865.8461
2023-05-11T03:33:37.478Z,862.7692
2023-05-11T03:34:39.072Z,857.6923
2023-05-11T03:35:40.747Z,855.7692
2023-05-11T03:36:42.427Z,862.3077
2023-05-11T03:37:44.046Z,865.7692
2023-05-11T03:38:45.640Z,870.8461
2023-05-11T03:39:47.430Z,869.1539
2023-05-11T03:40:49.019Z,878.5385
2023-05-11T03:41:50.942Z,874.3077
2023-05-11T03:42:52.237Z,863.7692
2023-05-11T03:43:53.950Z,863.2308
2023-05-11T03:44:55.553Z,867.3077
2023-05-11T03:45:57.874Z,858.6154
2023-05-11T03:46:58.871Z,859.6154
2023-05-11T03:48:00.578Z,866.0769
2023-05-11T03:49:02.183Z,870.3077
2023-05-11T03:50:03.785Z,859.2308
2023-05-11T03:51:05.453Z,858.5385
2023-05-11T03:52:07.127Z,859.0769
2023-05-11T03:53:08.758Z,862.4615
2023-05-11T03:54:10.403Z,861.7692
2023-05-11T03:55:12.066Z,860.0000
2023-05-11T03:56:13.607Z,864.6923
2023-05-11T03:57:15.379Z,865.5385
2023-05-11T03:58:16.901Z,859.8461
2023-05-11T03:59:18.536Z,867.3077
2023-05-11T04:00:20.362Z,867.0000
2023-05-11T04:01:21.830Z,865.5385
2023-05-11T04:02:23.632Z,869.8461
2023-05-11T04:03:25.372Z,867.3846
2023-05-11T04:04:26.862Z,869.0000
2023-05-11T04:05:28.434Z,872.2308
2023-05-11T04:06:30.082Z,869.5385
2023-05-11T04:07:31.732Z,876.3077
2023-05-11T04:08:33.587Z,876.7692
2023-05-11T04:09:35.394Z,874.2308
2023-05-11T04:10:37.694Z,873.5385
2023-05-11T04:11:38.717Z,873.7692
2023-05-11T04:12:40.389Z,876.2308
2023-05-11T04:13:41.833Z,877.2308
2023-05-11T04:14:43.490Z,880.0000
2023-05-11T04:15:44.998Z,881.0769
2023-05-11T04:16:46.694Z,880.3846
2023-05-11T04:17:48.408Z,876.5385
2023-05-11T04:18:50.046Z,880.6923
2023-05-11T04:19:51.640Z,879.4615
2023-05-11T04:20:53.389Z,877.5385
2023-05-11T04:21:54.931Z,877.8461
2023-05-11T04:22:56.559Z,881.2308
2023-05-11T04:23:58.190Z,877.5385
2023-05-11T04:24:59.918Z,881.3846
2023-05-11T04:26:01.506Z,882.9231
2023-05-11T04:27:03.135Z,884.4615
2023-05-11T04:28:04.713Z,889.1539
2023-05-11T04:29:06.563Z,878.6154
2023-05-11T04:30:08.113Z,885.8461
2023-05-11T04:31:09.799Z,885.0769
2023-05-11T04:32:11.443Z,884.9231
2023-05-11T04:33:13.023Z,887.0000
2023-05-11T04:34:14.732Z,894.6154
2023-05-11T04:35:16.268Z,898.0000
2023-05-11T04:36:18.040Z,887.8461
2023-05-11T04:37:19.667Z,891.1539
2023-05-11T04:38:22.214Z,890.3846
2023-05-11T04:39:22.972Z,894.3846
2023-05-11T04:40:24.619Z,897.1539
2023-05-11T04:41:26.200Z,899.1539
2023-05-11T04:42:27.908Z,895.8461
2023-05-11T04:43:29.511Z,889.1539
2023-05-11T04:44:31.648Z,892.8461
2023-05-11T04:45:32.891Z,898.5385
2023-05-11T04:46:34.501Z,901.2308
2023-05-11T04:47:36.281Z,899.8461
2023-05-11T04:48:37.781Z,892.0000
2023-05-11T04:49:39.454Z,896.7692
2023-05-11T04:50:41.125Z,899.3846
2023-05-11T04:51:43.694Z,901.6923
2023-05-11T04:52:44.526Z,908.8461
2023-05-11T04:53:45.984Z,907.8461
2023-05-11T04:54:47.832Z,906.2308
2023-05-11T04:55:49.245Z,916.2308
2023-05-11T04:56:50.919Z,917.2308
2023-05-11T04:57:52.595Z,934.2308
2023-05-11T04:58:54.218Z,944.3077
2023-05-11T04:59:56.169Z,947.9231
2023-05-11T05:00:57.546Z,955.4615
2023-05-11T05:01:59.126Z,957.1539
2023-05-11T05:03:00.891Z,946.7692
2023-05-11T05:04:03.424Z,939.0769
2023-05-11T05:05:04.047Z,938.5385
2023-05-11T05:06:05.807Z,953.0769
2023-05-11T05:07:07.436Z,966.6154
2023-05-11T05:08:09.060Z,963.0769
2023-05-11T05:09:10.629Z,949.0769
2023-05-11T05:10:12.348Z,942.3846
2023-05-11T05:11:13.937Z,970.6923
2023-05-11T05:12:15.883Z,985.6154
2023-05-11T05:13:17.451Z,991.6923
2023-05-11T05:14:18.974Z,978.5385
2023-05-11T05:15:20.586Z,960.7692
2023-05-11T05:16:22.311Z,964.4615
2023-05-11T05:17:23.890Z,984.5385
2023-05-11T05:18:25.560Z,990.1539
2023-05-11T05:19:28.140Z,995.4615
2023-05-11T05:20:28.730Z,985.5385
2023-05-11T05:21:31.364Z,970.8461
2023-05-11T05:22:33.033Z,998.7692
2023-05-11T05:23:33.755Z,1002.6923
2023-05-11T05:24:35.301Z,1017.9231
2023-05-11T05:25:37.080Z,1012.3846
2023-05-11T05:26:38.688Z,993.0769
2023-05-11T05:27:41.283Z,989.1539
2023-05-11T05:28:41.860Z,1017.8461
2023-05-11T05:29:43.625Z,1020.2308
2023-05-11T05:30:45.299Z,1031.0769
2023-05-11T05:31:46.851Z,1003.4615
2023-05-11T05:32:48.492Z,990.8461
2023-05-11T05:33:50.204Z,1015.6154
2023-05-11T05:34:51.883Z,1028.5385
2023-05-11T05:35:53.528Z,1032.3077
2023-05-11T05:36:55.138Z,1029.9231
2023-05-11T05:37:56.764Z,1025.2307
2023-05-11T05:38:58.561Z,1007.0000
2023-05-11T05:40:00.068Z,1026.5385
2023-05-11T05:41:01.750Z,1040.4615
2023-05-11T05:42:03.343Z,1044.6923
2023-05-11T05:43:05.037Z,1035.5385
2023-05-11T05:44:07.674Z,1013.6923
2023-05-11T05:45:08.195Z,1022.6923
2023-05-11T05:46:10.704Z,1037.0000
2023-05-11T05:47:11.571Z,1045.6154
2023-05-11T05:48:13.590Z,1045.5385
2023-05-11T05:49:15.777Z,1035.9231
2023-05-11T05:50:17.476Z,1014.7692
2023-05-11T05:51:19.096Z,1030.2307
2023-05-11T05:52:19.832Z,1045.9231
2023-05-11T05:53:21.413Z,1066.3077
2023-05-11T05:54:23.063Z,1047.1538
2023-05-11T05:55:24.676Z,1044.4615
2023-05-11T05:56:26.446Z,1043.3077
2023-05-11T05:57:28.997Z,1055.6154
2023-05-11T05:58:30.604Z,1067.5385
2023-05-11T05:59:31.588Z,1064.5385
2023-05-11T06:00:32.988Z,1046.1538
2023-05-11T06:01:34.590Z,1036.4615
2023-05-11T06:02:36.252Z,1052.4615
2023-05-11T06:03:37.994Z,1058.6923
2023-05-11T06:04:39.573Z,1081.0769
2023-05-11T06:05:41.125Z,1060.9231
2023-05-11T06:06:43.124Z,1046.1538
2023-05-11T06:07:49.340Z,1045.4615
2023-05-11T06:08:46.131Z,1061.0000
2023-05-11T06:09:47.807Z,1075.9231
2023-05-11T06:10:50.434Z,1082.6923
2023-05-11T06:11:50.995Z,1060.5385
2023-05-11T06:12:52.626Z,1045.6154
2023-05-11T06:13:54.303Z,1060.4615
2023-05-11T06:14:55.937Z,1073.0000
2023-05-11T06:15:57.777Z,1090.9231
2023-05-11T06:16:59.262Z,1073.0769
2023-05-11T06:18:00.872Z,1064.1538
2023-05-11T06:19:02.665Z,1056.0769
2023-05-11T06:20:04.192Z,1079.0000
2023-05-11T06:21:05.820Z,1090.4615
2023-05-11T06:22:07.479Z,1094.8462
2023-05-11T06:23:09.211Z,1085.6154
2023-05-11T06:24:10.746Z,1075.7693
2023-05-11T06:25:12.490Z,1080.8462
2023-05-11T06:26:14.111Z,1095.3846
2023-05-11T06:27:18.274Z,1098.2307
2023-05-11T06:28:17.256Z,1090.0000
2023-05-11T06:29:18.951Z,1092.4615
2023-05-11T06:30:20.811Z,1080.1538
2023-05-11T06:31:22.319Z,1095.9231
2023-05-11T06:32:23.929Z,1105.8462
2023-05-11T06:33:25.466Z,1094.9231
2023-05-11T06:34:27.191Z,1100.0000
2023-05-11T06:35:28.831Z,1089.5385
2023-05-11T06:36:30.522Z,1098.6154
2023-05-11T06:37:32.194Z,1104.3846
2023-05-11T06:38:33.838Z,1113.6923
2023-05-11T06:39:35.369Z,1101.9231
2023-05-11T06:40:37.054Z,1087.7693
2023-05-11T06:41:38.778Z,1091.1538
2023-05-11T06:42:40.453Z,1109.2307
2023-05-11T06:43:41.977Z,1123.0000
2023-05-11T06:44:43.761Z,1116.6154
2023-05-11T06:45:45.310Z,1101.6154
2023-05-11T06:46:46.951Z,1084.7693
2023-05-11T06:47:48.703Z,1099.9231
2023-05-11T06:48:50.262Z,1109.9231
2023-05-11T06:49:51.831Z,1135.3846
2023-05-11T06:50:53.571Z,1113.5385
2023-05-11T06:51:56.133Z,1100.8462
2023-05-11T06:52:56.853Z,1092.3846
2023-05-11T06:53:58.419Z,1107.6154
2023-05-11T06:55:00.171Z,1126.8462
2023-05-11T06:56:01.728Z,1124.3077
2023-05-11T06:57:03.491Z,1112.8462
2023-05-11T06:58:05.056Z,1104.7693
2023-05-11T06:59:06.698Z,1105.8462
2023-05-11T07:00:08.313Z,1133.6923
2023-05-11T07:01:10.055Z,1137.2307
2023-05-11T07:02:11.658Z,1120.8462
2023-05-11T07:03:13.412Z,1114.4615
2023-05-11T07:04:14.991Z,1102.8462
2023-05-11T07:05:16.627Z,1116.0769
2023-05-11T07:06:18.237Z,1122.6923
2023-05-11T07:07:19.925Z,1111.8462
2023-05-11T07:08:22.043Z,1104.8462
2023-05-11T07:09:23.235Z,1083.2307
2023-05-11T07:10:24.808Z,1098.9231
2023-05-11T07:11:26.442Z,1124.5385
2023-05-11T07:12:28.117Z,1138.6154
2023-05-11T07:13:29.784Z,1113.4615
2023-05-11T07:14:31.411Z,1099.5385
2023-05-11T07:15:33.070Z,1079.9231
2023-05-11T07:16:34.681Z,1098.5385
2023-05-11T07:17:36.370Z,1103.5385
2023-05-11T07:18:38.054Z,1121.6923
2023-05-11T07:19:39.683Z,1084.3077
2023-05-11T07:20:41.270Z,1064.3846
2023-05-11T07:21:42.899Z,1066.7693
2023-05-11T07:22:44.655Z,1086.0769
2023-05-11T07:23:46.513Z,1114.6154
2023-05-11T07:24:47.934Z,1149.6923
2023-05-11T07:25:49.579Z,1081.0769
2023-05-11T07:26:51.154Z,1051.3846
2023-05-11T07:27:52.768Z,1060.5385
2023-05-11T07:28:54.516Z,1075.1538
2023-05-11T07:29:56.126Z,1121.4615
2023-05-11T07:30:57.782Z,1133.3846
2023-05-11T07:31:59.377Z,1062.0769
2023-05-11T07:33:01.133Z,1042.3846
2023-05-11T07:34:02.680Z,1065.0000
2023-05-11T07:35:04.402Z,1084.6923
2023-05-11T07:36:05.914Z,1157.3077
2023-05-11T07:37:07.687Z,1119.1538
2023-05-11T07:38:09.285Z,1065.6154
2023-05-11T07:39:10.980Z,1054.5385
2023-05-11T07:40:12.623Z,1072.6154
2023-05-11T07:41:14.223Z,1101.4615
2023-05-11T07:42:15.938Z,1169.3846
2023-05-11T07:43:17.536Z,1087.4615
2023-05-11T07:44:20.063Z,1056.2307
2023-05-11T07:45:21.021Z,1056.2307
2023-05-11T07:46:22.467Z,1083.0000
2023-05-11T07:47:24.057Z,1094.6154
2023-05-11T07:48:25.751Z,1169.7693
2023-05-11T07:49:35.498Z,1090.8462
2023-05-11T07:50:29.504Z,1060.9231
2023-05-11T07:51:30.742Z,1048.1538
2023-05-11T07:52:32.330Z,1087.8462
2023-05-11T07:53:33.990Z,1095.2307
2023-05-11T07:54:35.742Z,1151.8462
2023-05-11T07:55:37.373Z,1081.6923
2023-05-11T07:56:38.912Z,1051.2307
2023-05-11T07:57:40.722Z,1050.8462
2023-05-11T07:58:42.275Z,1076.0769
2023-05-11T07:59:43.932Z,1111.6154
2023-05-11T08:00:45.473Z,1147.9231
2023-05-11T08:01:47.231Z,1084.0000
2023-05-11T08:02:48.870Z,1064.8462
2023-05-11T08:03:50.519Z,1062.1538
2023-05-11T08:04:52.110Z,1078.3077
2023-05-11T08:05:53.831Z,1106.2307
2023-05-11T08:06:55.379Z,1122.8462
2023-05-11T08:07:57.026Z,1085.9231
2023-05-11T08:08:58.659Z,1054.6923
2023-05-11T08:10:00.386Z,1050.4615
2023-05-11T08:11:01.975Z,1091.4615
2023-05-11T08:12:03.596Z,1115.6154
2023-05-11T08:13:05.238Z,1153.3846
2023-05-11T08:14:06.951Z,1070.9231
2023-05-11T08:15:08.560Z,1041.6154
2023-05-11T08:16:10.248Z,1046.6154
2023-05-11T08:17:11.813Z,1080.6923
2023-05-11T08:18:13.583Z,1100.3077
2023-05-11T08:19:15.118Z,1154.5385
2023-05-11T08:20:17.098Z,1069.6154
2023-05-11T08:21:18.491Z,1042.1538
2023-05-11T08:22:20.028Z,1048.0000
2023-05-11T08:23:21.784Z,1071.0000
2023-05-11T08:24:23.439Z,1114.6154
2023-05-11T08:25:25.051Z,1139.6923
2023-05-11T08:26:26.740Z,1052.6154
2023-05-11T08:27:29.001Z,1031.4615
2023-05-11T08:28:29.926Z,1035.1538
2023-05-11T08:29:32.569Z,1081.4615
2023-05-11T08:30:33.244Z,1122.8462
2023-05-11T08:31:35.020Z,1128.5385
2023-05-11T08:32:46.589Z,1053.3077
2023-05-11T08:33:38.876Z,1032.1538
2023-05-11T08:34:39.863Z,1052.7693
2023-05-11T08:35:41.495Z,1098.6154
2023-05-11T08:36:43.000Z,1133.3077
2023-05-11T08:37:44.635Z,1124.5385
2023-05-11T08:38:46.305Z,1049.8462
2023-05-11T08:39:49.063Z,1033.9231
2023-05-11T08:40:49.718Z,1042.6154
2023-05-11T08:41:51.272Z,1109.7693
2023-05-11T08:42:52.967Z,1095.6923
2023-05-11T08:43:54.583Z,1127.7693
2023-05-11T08:44:56.261Z,1043.7693
2023-05-11T08:45:58.006Z,1018.4615
2023-05-11T08:47:14.323Z,1047.0769
2023-05-11T08:48:01.183Z,1085.6923
2023-05-11T08:49:02.864Z,1100.0769
2023-05-11T08:50:04.447Z,1074.7693
2023-05-11T08:51:06.241Z,1025.6154
2023-05-11T08:52:08.021Z,1019.0000
2023-05-11T08:53:09.479Z,1050.8462
2023-05-11T08:54:11.072Z,1098.5385
2023-05-11T08:55:12.679Z,1117.6923
2023-05-11T08:56:14.389Z,1067.6923
2023-05-11T08:57:15.967Z,1026.5385
2023-05-11T08:58:17.680Z,1016.5385
2023-05-11T08:59:19.285Z,1049.8462
2023-05-11T09:00:20.961Z,1105.1538
2023-05-11T09:01:22.617Z,1114.6923
2023-05-11T09:02:24.416Z,1062.9231
2023-05-11T09:03:25.846Z,1022.5385
2023-05-11T09:04:27.538Z,1016.6154
2023-05-11T09:05:29.175Z,1043.8462
2023-05-11T09:06:31.889Z,1070.4615
2023-05-11T09:07:32.559Z,1107.4615
2023-05-11T09:08:34.641Z,1042.6154
2023-05-11T09:09:35.868Z,1012.6923
2023-05-11T09:10:37.533Z,1014.5385
2023-05-11T09:11:39.130Z,1054.9231
2023-05-11T09:12:40.869Z,1088.9231
2023-05-11T09:13:42.404Z,1131.1538
2023-05-11T09:14:44.072Z,1026.6923
2023-05-11T09:15:45.747Z,998.4615
2023-05-11T09:16:47.395Z,1010.3846
2023-05-11T09:17:49.118Z,1063.6923
2023-05-11T09:18:50.716Z,1084.0769
2023-05-11T09:19:52.330Z,1124.6154
2023-05-11T09:20:53.917Z,1030.9231
2023-05-11T09:21:55.620Z,1004.9231
2023-05-11T09:22:57.227Z,1005.3846
2023-05-11T09:23:58.904Z,1045.3077
2023-05-11T09:25:00.525Z,1067.7693
2023-05-11T09:26:02.154Z,1126.0769
2023-05-11T09:27:03.783Z,1020.0769
2023-05-11T09:28:05.439Z,1004.4615
2023-05-11T09:29:07.139Z,1019.3077
2023-05-11T09:30:08.743Z,1049.0000
2023-05-11T09:31:10.447Z,1064.7693
2023-05-11T09:32:12.033Z,1101.6923
2023-05-11T09:33:13.790Z,1016.9231
2023-05-11T09:34:15.298Z,999.9231
2023-05-11T09:35:17.092Z,999.4615
2023-05-11T09:36:18.640Z,1064.6154
2023-05-11T09:37:20.239Z,1104.6154
2023-05-11T09:38:21.917Z,1108.6923
2023-05-11T09:39:35.603Z,1034.5385
2023-05-11T09:40:26.878Z,1007.4615
2023-05-11T09:41:26.857Z,1021.3846
2023-05-11T09:42:28.426Z,1063.4615
2023-05-11T09:43:30.232Z,1061.6154
2023-05-11T09:44:31.817Z,1086.4615
2023-05-11T09:45:33.418Z,1025.4615
2023-05-11T09:46:35.194Z,1003.6923
2023-05-11T09:47:36.727Z,1017.3077
2023-05-11T09:48:38.378Z,1076.9231
2023-05-11T09:49:40.012Z,1090.9231
2023-05-11T09:50:41.709Z,1069.7693
2023-05-11T09:51:43.298Z,1028.8462
2023-05-11T09:52:44.982Z,1004.5385
2023-05-11T09:53:47.120Z,1014.4615
2023-05-11T09:54:48.240Z,1082.3846
2023-05-11T09:55:49.860Z,1115.9231
2023-05-11T09:56:51.535Z,1076.5385
2023-05-11T09:57:53.177Z,1013.7692
2023-05-11T09:58:54.958Z,998.1539
2023-05-11T09:59:56.475Z,1024.9231
2023-05-11T10:00:58.167Z,1069.7693
2023-05-11T10:01:59.841Z,1118.4615
2023-05-11T10:03:01.482Z,1042.7693
2023-05-11T10:04:21.455Z,1010.5385
2023-05-11T10:05:04.793Z,994.0769
2023-05-11T10:06:06.376Z,1035.6923
2023-05-11T10:07:08.001Z,1074.8462
2023-05-11T10:08:09.670Z,1093.9231
2023-05-11T10:09:11.337Z,1034.3077
2023-05-11T10:10:13.004Z,992.9231
2023-05-11T10:11:14.565Z,984.4615
2023-05-11T10:12:16.237Z,1039.0000
2023-05-11T10:13:17.822Z,1049.0769
2023-05-11T10:14:19.653Z,1074.0000
2023-05-11T10:15:21.222Z,1029.0769
2023-05-11T10:16:22.795Z,988.8461
2023-05-11T10:17:24.460Z,974.8461
2023-05-11T10:18:26.133Z,1020.3846
2023-05-11T10:19:27.824Z,1042.8462
2023-05-11T10:20:29.363Z,1064.4615
2023-05-11T10:21:31.095Z,1016.3846
2023-05-11T10:22:32.850Z,979.3077
2023-05-11T10:23:34.300Z,971.8461
2023-05-11T10:24:36.030Z,1014.2308
2023-05-11T10:25:37.602Z,1037.6154
2023-05-11T10:26:39.269Z,1071.7693
2023-05-11T10:27:40.904Z,1009.0000
2023-05-11T10:28:42.511Z,1005.3077
2023-05-11T10:29:44.229Z,995.3846
2023-05-11T10:30:45.978Z,1023.0769
2023-05-11T10:31:47.473Z,1057.2307
2023-05-11T10:32:49.190Z,1041.2307
2023-05-11T10:33:50.820Z,1023.8461
2023-05-11T10:34:52.429Z,1007.5385
2023-05-11T10:35:54.243Z,1015.3077
2023-05-11T10:36:55.689Z,1051.3077
2023-05-11T10:37:57.355Z,1073.0769
2023-05-11T10:38:58.975Z,1065.5385
2023-05-11T10:40:00.721Z,1066.5385
2023-05-11T10:41:02.343Z,1041.8462
2023-05-11T10:42:03.947Z,1044.3846
2023-05-11T10:43:05.642Z,1078.9231
2023-05-11T10:44:07.279Z,1114.0000
2023-05-11T10:45:08.935Z,1087.6154
2023-05-11T10:46:11.124Z,1087.6154
2023-05-11T10:47:12.272Z,1076.5385
2023-05-11T10:48:13.802Z,1079.2307
2023-05-11T10:49:15.507Z,1114.3846
2023-05-11T10:50:17.272Z,1135.3077
2023-05-11T10:51:18.834Z,1106.2307
2023-05-11T10:52:20.452Z,1107.0769
2023-05-11T10:53:22.166Z,1079.4615
2023-05-11T10:54:23.653Z,1082.1538
2023-05-11T10:55:25.426Z,1115.5385
2023-05-11T10:56:27.028Z,1127.7693
2023-05-11T10:57:28.668Z,1107.5385
2023-05-11T10:58:30.359Z,1121.1538
2023-05-11T10:59:31.942Z,1108.2307
2023-05-11T11:00:33.688Z,1095.5385
2023-05-11T11:01:35.979Z,1123.3077
2023-05-11T11:02:36.931Z,1141.3846
2023-05-11T11:03:38.581Z,1113.3077
2023-05-11T11:04:40.183Z,1110.3846
2023-05-11T11:05:42.027Z,1093.8462
2023-05-11T11:06:43.558Z,1084.2307
2023-05-11T11:07:45.128Z,1115.7693
2023-05-11T11:08:46.896Z,1133.9231
2023-05-11T11:09:48.407Z,1122.4615
2023-05-11T11:10:50.143Z,1115.1538
2023-05-11T11:11:51.811Z,1094.6923
2023-05-11T11:12:53.390Z,1094.0000
2023-05-11T11:13:55.038Z,1127.1538
2023-05-11T11:14:56.678Z,1135.8462
2023-05-11T11:15:58.349Z,1120.2307
2023-05-11T11:17:00.062Z,1122.0769
2023-05-11T11:18:01.626Z,1104.4615
2023-05-11T11:19:03.272Z,1100.0000
2023-05-11T11:20:04.976Z,1134.6923
2023-05-11T11:21:06.626Z,1146.0769
2023-05-11T11:22:08.252Z,1129.8462
2023-05-11T11:23:09.847Z,1119.0000
2023-05-11T11:24:11.508Z,1108.5385
2023-05-11T11:25:13.163Z,1124.8462
2023-05-11T11:26:14.828Z,1143.7693
2023-05-11T11:27:16.486Z,1145.7693
2023-05-11T11:28:18.073Z,1122.0000
2023-05-11T11:29:19.850Z,1130.1538
2023-05-11T11:30:21.397Z,1114.3077
2023-05-11T11:31:23.161Z,1125.3846
2023-05-11T11:32:24.743Z,1154.8462
2023-05-11T11:33:26.211Z,1143.6923
2023-05-11T11:34:27.947Z,1136.9231
2023-05-11T11:35:29.531Z,1119.3846
2023-05-11T11:36:31.203Z,1109.9231
2023-05-11T11:37:32.852Z,1142.5385
2023-05-11T11:38:34.472Z,1167.6154
2023-05-11T11:39:36.153Z,1146.8462
2023-05-11T11:40:47.226Z,1150.3846
2023-05-11T11:41:39.436Z,1122.6923
2023-05-11T11:42:41.099Z,1129.3846
2023-05-11T11:43:42.710Z,1148.9231
2023-05-11T11:44:44.356Z,1149.3846
2023-05-11T11:45:46.016Z,1121.0769
2023-05-11T11:46:47.758Z,1124.5385
2023-05-11T11:47:49.329Z,1112.3077
2023-05-11T11:48:52.358Z,1125.0769
2023-05-11T11:49:52.640Z,1148.9231
2023-05-11T11:50:54.246Z,1154.5385
2023-05-11T11:51:56.020Z,1134.2307
2023-05-11T11:52:57.698Z,1112.5385